createdAt,value
2023-03-11T00:00:01.313Z,73
2023-03-11T00:04:01.160Z,73
2023-03-11T00:08:01.453Z,73
2023-03-11T00:12:01.894Z,73
2023-03-11T00:16:01.195Z,73
2023-03-11T00:20:01.266Z,73
2023-03-11T00:24:02.848Z,73
2023-03-11T00:28:01.248Z,73
2023-03-11T00:32:01.228Z,73
2023-03-11T00:36:01.348Z,74
2023-03-11T00:40:01.391Z,74
2023-03-11T00:44:01.315Z,74
2023-03-11T00:48:01.242Z,74
2023-03-11T00:52:01.384Z,74
2023-03-11T00:56:05.823Z,74
2023-03-11T01:00:01.260Z,74
2023-03-11T01:04:01.215Z,74
2023-03-11T01:08:01.745Z,74
2023-03-11T01:12:01.319Z,74
2023-03-11T01:16:01.315Z,74
2023-03-11T01:20:01.206Z,74
2023-03-11T01:24:01.194Z,75
2023-03-11T01:28:01.217Z,75
2023-03-11T01:32:01.214Z,75
2023-03-11T01:36:01.302Z,75
2023-03-11T01:40:01.090Z,75
2023-03-11T01:44:01.561Z,75
2023-03-11T01:48:01.352Z,75
2023-03-11T01:52:03.064Z,75
2023-03-11T01:56:02.144Z,75
2023-03-11T02:00:04.506Z,75
2023-03-11T02:04:02.457Z,75
2023-03-11T02:08:01.337Z,75
2023-03-11T02:12:01.833Z,75
2023-03-11T02:16:01.813Z,75
2023-03-11T02:20:08.198Z,75
2023-03-11T02:24:04.211Z,75
2023-03-11T02:28:02.278Z,75
2023-03-11T02:32:04.334Z,75
2023-03-11T02:36:01.361Z,76
2023-03-11T02:40:10.819Z,76
2023-03-11T02:44:02.172Z,76
2023-03-11T02:48:02.015Z,76
2023-03-11T02:52:01.320Z,76
2023-03-11T02:56:01.100Z,75
2023-03-11T03:00:07.931Z,75
2023-03-11T03:04:01.233Z,76
2023-03-11T03:08:02.009Z,76
2023-03-11T03:12:01.171Z,76
2023-03-11T03:16:01.195Z,76
2023-03-11T03:20:01.142Z,76
2023-03-11T03:24:01.342Z,76
2023-03-11T03:28:01.122Z,76
2023-03-11T03:32:01.399Z,76
2023-03-11T03:36:04.927Z,76
2023-03-11T03:40:02.610Z,76
2023-03-11T03:44:01.334Z,76
2023-03-11T03:48:01.271Z,76
2023-03-11T03:52:01.191Z,76
2023-03-11T03:56:01.801Z,75
2023-03-11T04:00:01.210Z,75
2023-03-11T04:04:01.358Z,76
2023-03-11T04:08:01.352Z,76
2023-03-11T04:12:01.339Z,76
2023-03-11T04:16:02.453Z,76
2023-03-11T04:20:01.424Z,76
2023-03-11T04:24:01.320Z,75
2023-03-11T04:28:01.174Z,75
2023-03-11T04:32:01.160Z,75
2023-03-11T04:36:04.557Z,76
2023-03-11T04:40:01.097Z,76
2023-03-11T04:44:01.280Z,76
2023-03-11T04:48:01.167Z,76
2023-03-11T04:52:01.162Z,76
2023-03-11T04:56:01.234Z,76
2023-03-11T05:00:01.294Z,76
2023-03-11T05:04:01.070Z,75
2023-03-11T05:08:01.317Z,75
2023-03-11T05:12:01.230Z,75
2023-03-11T05:16:01.220Z,75
2023-03-11T05:20:01.186Z,75
2023-03-11T05:24:01.274Z,76
2023-03-11T05:28:01.405Z,76
2023-03-11T05:32:01.287Z,76
2023-03-11T05:36:05.249Z,76
2023-03-11T05:40:01.207Z,76
2023-03-11T05:44:01.568Z,76
2023-03-11T05:48:01.354Z,76
2023-03-11T05:52:01.089Z,76
2023-03-11T05:56:01.447Z,76
2023-03-11T06:00:01.429Z,76
2023-03-11T06:04:01.594Z,76
2023-03-11T06:08:01.164Z,76
2023-03-11T06:12:01.308Z,76
2023-03-11T06:16:01.185Z,76
2023-03-11T06:20:01.299Z,76
2023-03-11T06:24:01.309Z,76
2023-03-11T06:28:01.089Z,76
2023-03-11T06:32:01.260Z,76
2023-03-11T06:36:02.921Z,77
2023-03-11T06:40:01.107Z,77
2023-03-11T06:44:02.049Z,77
2023-03-11T06:48:01.187Z,77
2023-03-11T06:52:01.230Z,77
2023-03-11T06:56:02.464Z,78
2023-03-11T07:00:01.281Z,78
2023-03-11T07:04:01.254Z,78
2023-03-11T07:08:01.218Z,78
2023-03-11T07:12:01.221Z,78
2023-03-11T07:16:02.174Z,79
2023-03-11T07:20:01.181Z,79
2023-03-11T07:24:01.893Z,81
2023-03-11T07:28:01.041Z,81
2023-03-11T07:32:01.409Z,81
2023-03-11T07:36:05.041Z,82
2023-03-11T07:40:01.243Z,82
2023-03-11T07:44:01.781Z,83
2023-03-11T07:48:01.283Z,83
2023-03-11T07:52:01.286Z,83
2023-03-11T07:56:01.859Z,84
2023-03-11T08:00:01.456Z,84
2023-03-11T08:04:01.983Z,84
2023-03-11T08:08:01.324Z,84
2023-03-11T08:12:01.375Z,84
2023-03-11T08:16:02.801Z,84
2023-03-11T08:20:01.221Z,84
2023-03-11T08:24:01.676Z,84
2023-03-11T08:28:01.152Z,84
2023-03-11T08:32:02.245Z,84
2023-03-11T08:36:01.329Z,84
2023-03-11T08:40:01.084Z,84
2023-03-11T08:44:01.441Z,84
2023-03-11T08:48:01.234Z,84
2023-03-11T08:52:01.210Z,84
2023-03-11T08:56:01.326Z,84
2023-03-11T09:00:01.212Z,84
2023-03-11T09:04:01.210Z,82
2023-03-11T09:08:05.329Z,82
2023-03-11T09:12:01.340Z,82
2023-03-11T09:16:01.358Z,78
2023-03-11T09:20:01.462Z,78
2023-03-11T09:24:03.420Z,72
2023-03-11T09:28:01.472Z,72
2023-03-11T09:32:01.176Z,72
2023-03-11T09:36:01.331Z,70
2023-03-11T09:40:01.328Z,70
2023-03-11T09:44:08.458Z,67
2023-03-11T09:48:07.730Z,67
2023-03-11T09:52:06.128Z,67
2023-03-11T09:56:04.435Z,65
2023-03-11T10:00:03.497Z,65
2023-03-11T10:04:04.153Z,64
2023-03-11T10:08:03.197Z,64
2023-03-11T10:12:11.261Z,64
2023-03-11T10:16:05.425Z,63
2023-03-11T10:20:05.572Z,63
2023-03-11T10:24:09.268Z,60
2023-03-11T10:28:04.651Z,60
2023-03-11T10:32:05.546Z,60
2023-03-11T10:36:04.455Z,59
2023-03-11T10:40:06.909Z,59
2023-03-11T10:44:03.571Z,57
2023-03-11T10:48:01.361Z,57
2023-03-11T10:52:02.495Z,57
2023-03-11T10:56:01.218Z,57
2023-03-11T11:00:08.742Z,57
2023-03-11T11:04:01.575Z,56
2023-03-11T11:08:03.442Z,56
2023-03-11T11:12:02.423Z,56
2023-03-11T11:16:02.479Z,56
2023-03-11T11:20:12.211Z,56
2023-03-11T11:24:05.212Z,56
2023-03-11T11:28:02.015Z,56
2023-03-11T11:32:12.164Z,56
2023-03-11T11:36:03.029Z,55
2023-03-11T11:40:11.688Z,55
2023-03-11T11:44:03.236Z,55
2023-03-11T11:48:05.282Z,55
2023-03-11T11:52:05.615Z,55
2023-03-11T11:56:01.758Z,54
2023-03-11T12:00:02.338Z,54
2023-03-11T12:04:07.821Z,55
2023-03-11T12:08:09.074Z,55
2023-03-11T12:12:07.531Z,55
2023-03-11T12:16:05.157Z,56
2023-03-11T12:20:06.324Z,56
2023-03-11T12:24:08.231Z,55
2023-03-11T12:28:08.252Z,55
2023-03-11T12:32:01.851Z,55
2023-03-11T12:36:01.467Z,56
2023-03-11T12:40:10.939Z,56
2023-03-11T12:44:02.614Z,55
2023-03-11T12:48:10.862Z,55
2023-03-11T12:52:03.015Z,55
2023-03-11T12:56:03.634Z,55
2023-03-11T13:00:09.155Z,55
2023-03-11T13:04:09.487Z,55
2023-03-11T13:08:03.474Z,55
2023-03-11T13:12:01.504Z,55
2023-03-11T13:16:10.954Z,55
2023-03-11T13:20:01.783Z,55
2023-03-11T13:24:10.877Z,56
2023-03-11T13:28:10.884Z,56
2023-03-11T13:32:12.819Z,56
2023-03-11T13:36:08.700Z,57
2023-03-11T13:40:07.064Z,57
2023-03-11T13:44:08.744Z,58
2023-03-11T13:48:03.300Z,58
2023-03-11T13:52:01.993Z,58
2023-03-11T13:56:01.287Z,58
2023-03-11T14:00:16.593Z,58
2023-03-11T14:04:01.278Z,58
2023-03-11T14:08:10.912Z,58
2023-03-11T14:12:03.835Z,58
2023-03-11T14:16:03.768Z,58
2023-03-11T14:20:03.801Z,58
2023-03-11T14:24:01.966Z,58
2023-03-11T14:28:03.702Z,58
2023-03-11T14:32:12.492Z,58
2023-03-11T14:36:02.936Z,57
2023-03-11T14:40:01.650Z,57
2023-03-11T14:44:01.845Z,57
2023-03-11T14:48:04.863Z,57
2023-03-11T14:52:02.402Z,57
2023-03-11T15:04:05.172Z,57
2023-03-11T15:08:03.413Z,57
2023-03-11T15:12:03.345Z,56
2023-03-11T15:16:01.975Z,56
2023-03-11T15:20:01.010Z,56
2023-03-11T15:24:04.143Z,56
2023-03-11T15:28:11.329Z,56
2023-03-11T15:32:11.392Z,56
2023-03-11T15:36:01.090Z,55
2023-03-11T15:40:11.174Z,55
2023-03-11T15:44:03.240Z,55
2023-03-11T15:48:00.940Z,55
2023-03-11T15:52:01.582Z,55
2023-03-11T15:56:08.263Z,55
2023-03-11T16:00:01.122Z,55
2023-03-11T16:04:01.255Z,55
2023-03-11T16:08:01.053Z,55
2023-03-11T16:12:00.865Z,55
2023-03-11T16:16:04.722Z,55
2023-03-11T16:20:00.871Z,55
2023-03-11T16:24:01.144Z,55
2023-03-11T16:28:01.533Z,55
2023-03-11T16:32:00.961Z,55
2023-03-11T16:36:01.349Z,54
2023-03-11T16:40:01.363Z,54
2023-03-11T16:44:00.848Z,54
2023-03-11T16:48:01.396Z,54
2023-03-11T16:52:01.188Z,54
2023-03-11T16:56:00.986Z,55
2023-03-11T17:00:01.085Z,55
2023-03-11T17:04:01.094Z,55
2023-03-11T17:08:03.335Z,55
2023-03-11T17:12:01.619Z,55
2023-03-11T17:16:01.958Z,55
2023-03-11T17:20:01.033Z,55
2023-03-11T17:24:00.878Z,55
2023-03-11T17:28:01.063Z,55
2023-03-11T17:32:01.184Z,55
2023-03-11T17:36:01.545Z,56
2023-03-11T17:40:01.090Z,56
2023-03-11T17:44:01.086Z,56
2023-03-11T17:48:00.847Z,56
2023-03-11T17:52:01.207Z,56
2023-03-11T17:56:00.863Z,57
2023-03-11T18:00:04.822Z,57
2023-03-11T18:04:01.237Z,58
2023-03-11T18:08:00.962Z,58
2023-03-11T18:12:01.715Z,58
2023-03-11T18:16:02.209Z,59
2023-03-11T18:20:01.401Z,59
2023-03-11T18:24:01.188Z,60
2023-03-11T18:28:02.834Z,60
2023-03-11T18:32:01.065Z,60
2023-03-11T18:36:09.654Z,60
2023-03-11T18:40:01.086Z,60
2023-03-11T18:44:01.428Z,60
2023-03-11T18:48:01.028Z,60
2023-03-11T18:52:01.039Z,60
2023-03-11T18:56:02.378Z,61
2023-03-11T19:00:00.896Z,61
2023-03-11T19:04:01.261Z,61
2023-03-11T19:08:00.871Z,61
2023-03-11T19:12:01.073Z,61
2023-03-11T19:16:01.058Z,62
2023-03-11T19:20:01.011Z,62
2023-03-11T19:24:01.102Z,62
2023-03-11T19:28:01.234Z,62
2023-03-11T19:32:03.801Z,62
2023-03-11T19:36:02.109Z,62
2023-03-11T19:40:01.039Z,62
2023-03-11T19:44:03.149Z,62
2023-03-11T19:48:00.941Z,62
2023-03-11T19:52:01.530Z,62
2023-03-11T19:56:02.904Z,62
2023-03-11T20:00:01.204Z,62
2023-03-11T20:04:01.147Z,62
2023-03-11T20:08:01.168Z,62
2023-03-11T20:12:01.127Z,62
2023-03-11T20:16:03.454Z,62
2023-03-11T20:20:00.951Z,62
2023-03-11T20:24:01.027Z,62
2023-03-11T20:28:01.114Z,62
2023-03-11T20:32:03.139Z,62
2023-03-11T20:36:02.778Z,62
2023-03-11T20:40:01.467Z,62
2023-03-11T20:44:01.025Z,62
2023-03-11T20:48:00.921Z,62
2023-03-11T20:52:02.016Z,62
2023-03-11T20:56:04.917Z,63
2023-03-11T21:00:01.156Z,63
2023-03-11T21:04:02.485Z,62
2023-03-11T21:08:00.936Z,62
2023-03-11T21:12:01.220Z,62
2023-03-11T21:16:01.441Z,62
2023-03-11T21:20:01.133Z,62
2023-03-11T21:24:00.987Z,62
2023-03-11T21:28:01.093Z,62
2023-03-11T21:32:01.054Z,62
2023-03-11T21:36:01.184Z,61
2023-03-11T21:40:01.088Z,61
2023-03-11T21:44:01.212Z,61
2023-03-11T21:48:05.616Z,61
2023-03-11T21:52:02.723Z,61
2023-03-11T21:56:02.945Z,61
2023-03-11T22:00:01.063Z,61
2023-03-11T22:04:02.883Z,61
2023-03-11T22:08:01.104Z,61
2023-03-11T22:12:01.033Z,61
2023-03-11T22:16:02.116Z,61
2023-03-11T22:20:01.070Z,61
2023-03-11T22:24:01.020Z,60
2023-03-11T22:28:01.006Z,60
2023-03-11T22:32:01.036Z,60
2023-03-11T22:36:03.562Z,60
2023-03-11T22:40:01.170Z,60
2023-03-11T22:44:00.886Z,60
2023-03-11T22:48:01.038Z,60
2023-03-11T22:52:01.047Z,60
2023-03-11T22:56:05.327Z,60
2023-03-11T23:00:00.984Z,60
2023-03-11T23:04:01.416Z,59
2023-03-11T23:08:00.843Z,59
2023-03-11T23:12:02.888Z,59
2023-03-11T23:16:03.162Z,60
2023-03-11T23:20:01.412Z,60
2023-03-11T23:24:02.043Z,59
2023-03-11T23:28:01.734Z,59
2023-03-11T23:32:00.902Z,59
2023-03-11T23:36:01.548Z,59
2023-03-11T23:40:01.036Z,59
2023-03-11T23:44:00.950Z,59
2023-03-11T23:48:00.888Z,59
2023-03-11T23:52:01.213Z,59
2023-03-11T23:56:00.934Z,59
